createdAt,value
2023-10-18T00:00:23.731Z,57.20
2023-10-18T00:02:51.140Z,56.60
2023-10-18T00:05:19.950Z,56.70
2023-10-18T00:07:46.903Z,56.80
2023-10-18T00:10:13.862Z,56.90
2023-10-18T00:12:41.227Z,56.80
2023-10-18T00:15:08.734Z,56.80
2023-10-18T00:17:35.662Z,56.90
2023-10-18T00:20:02.867Z,57.00
2023-10-18T00:22:29.739Z,57.10
2023-10-18T00:24:57.051Z,57.00
2023-10-18T00:27:26.399Z,56.70
2023-10-18T00:29:59.208Z,56.70
2023-10-18T00:32:29.082Z,56.60
2023-10-18T00:34:55.965Z,56.70
2023-10-18T00:37:26.892Z,56.70
2023-10-18T00:39:54.021Z,56.70
2023-10-18T00:42:29.796Z,56.70
2023-10-18T00:45:02.991Z,56.70
2023-10-18T00:47:32.245Z,56.80
2023-10-18T00:49:59.555Z,56.80
2023-10-18T00:52:29.434Z,56.80
2023-10-18T00:54:56.503Z,56.80
2023-10-18T00:57:35.779Z,57.00
2023-10-18T01:00:13.607Z,57.00
2023-10-18T01:02:43.609Z,56.80
2023-10-18T01:05:13.680Z,56.70
2023-10-18T01:07:40.763Z,56.70
2023-10-18T01:10:10.476Z,56.70
2023-10-18T01:12:38.447Z,56.70
2023-10-18T01:15:07.939Z,56.70
2023-10-18T01:17:37.531Z,56.70
2023-10-18T01:20:30.435Z,56.80
2023-10-18T01:22:57.297Z,56.80
2023-10-18T01:25:25.505Z,56.80
2023-10-18T01:27:53.221Z,56.80
2023-10-18T01:30:21.173Z,56.90
2023-10-18T01:32:48.076Z,56.90
2023-10-18T01:35:15.001Z,56.80
2023-10-18T01:37:44.145Z,56.80
2023-10-18T01:40:42.809Z,56.80
2023-10-18T01:43:12.135Z,57.00
2023-10-18T01:45:39.981Z,56.90
2023-10-18T01:48:18.960Z,56.90
2023-10-18T01:50:47.238Z,56.90
2023-10-18T01:53:24.842Z,57.00
2023-10-18T01:55:55.075Z,57.00
2023-10-18T01:58:27.860Z,57.00
2023-10-18T02:00:57.114Z,57.00
2023-10-18T02:03:27.585Z,57.00
2023-10-18T02:05:54.634Z,57.00
2023-10-18T02:08:22.185Z,57.10
2023-10-18T02:10:51.620Z,57.20
2023-10-18T02:13:20.181Z,57.20
2023-10-18T02:15:47.060Z,57.30
2023-10-18T02:18:15.551Z,57.30
2023-10-18T02:20:53.193Z,57.30
2023-10-18T02:23:23.222Z,57.30
2023-10-18T02:25:51.104Z,57.40
2023-10-18T02:28:24.857Z,57.90
2023-10-18T02:30:59.279Z,57.30
2023-10-18T02:33:37.885Z,57.30
2023-10-18T02:36:12.482Z,57.20
2023-10-18T02:38:42.775Z,57.20
2023-10-18T02:41:22.504Z,57.10
2023-10-18T02:43:52.933Z,57.20
2023-10-18T02:46:27.087Z,57.20
2023-10-18T02:48:57.958Z,57.30
2023-10-18T02:51:29.588Z,57.30
2023-10-18T02:54:14.356Z,57.40
2023-10-18T02:56:41.566Z,57.40
2023-10-18T02:59:08.512Z,57.40
2023-10-18T03:01:42.031Z,57.50
2023-10-18T03:04:17.843Z,57.40
2023-10-18T03:06:46.841Z,57.30
2023-10-18T03:09:40.826Z,57.30
2023-10-18T03:12:14.982Z,57.50
2023-10-18T03:14:42.796Z,57.60
2023-10-18T03:17:36.429Z,57.70
2023-10-18T03:20:18.181Z,57.70
2023-10-18T03:22:44.937Z,57.70
2023-10-18T03:25:17.870Z,57.80
2023-10-18T03:27:51.734Z,57.80
2023-10-18T03:30:38.096Z,57.80
2023-10-18T03:33:08.806Z,57.80
2023-10-18T03:35:40.970Z,57.90
2023-10-18T03:38:22.637Z,58.00
2023-10-18T03:40:58.731Z,58.10
2023-10-18T03:43:33.273Z,58.10
2023-10-18T03:46:30.320Z,58.20
2023-10-18T03:49:03.215Z,58.20
2023-10-18T03:51:31.661Z,58.20
2023-10-18T03:54:01.560Z,58.30
2023-10-18T03:56:33.621Z,58.30
2023-10-18T03:59:19.055Z,58.30
2023-10-18T04:02:03.841Z,58.30
2023-10-18T04:04:36.415Z,58.40
2023-10-18T04:07:21.144Z,58.40
2023-10-18T04:10:00.492Z,58.50
2023-10-18T04:12:30.659Z,58.50
2023-10-18T04:15:00.030Z,58.50
2023-10-18T04:17:36.253Z,58.60
2023-10-18T04:20:09.810Z,58.60
2023-10-18T04:22:43.317Z,58.60
2023-10-18T04:25:15.645Z,58.60
2023-10-18T04:27:44.210Z,58.60
2023-10-18T04:30:15.666Z,58.60
2023-10-18T04:32:43.713Z,58.60
2023-10-18T04:35:12.063Z,58.70
2023-10-18T04:37:38.840Z,58.70
2023-10-18T04:40:07.811Z,58.70
2023-10-18T04:42:34.842Z,58.70
2023-10-18T04:45:17.372Z,58.60
2023-10-18T04:47:44.239Z,58.60
2023-10-18T04:50:13.818Z,58.60
2023-10-18T04:52:43.867Z,58.60
2023-10-18T04:55:16.199Z,58.60
2023-10-18T04:57:43.414Z,58.70
2023-10-18T05:00:26.570Z,58.80
2023-10-18T05:02:54.287Z,58.80
2023-10-18T05:05:21.832Z,58.80
2023-10-18T05:07:49.212Z,59.00
2023-10-18T05:10:17.682Z,58.90
2023-10-18T05:12:50.331Z,58.90
2023-10-18T05:15:23.249Z,58.90
2023-10-18T05:17:58.970Z,59.00
2023-10-18T05:20:43.065Z,58.90
2023-10-18T05:23:10.205Z,59.00
2023-10-18T05:25:46.310Z,59.00
2023-10-18T05:28:13.246Z,58.90
2023-10-18T05:30:59.092Z,59.00
2023-10-18T05:33:40.956Z,59.20
2023-10-18T05:36:23.540Z,59.20
2023-10-18T05:38:52.043Z,59.20
2023-10-18T05:41:39.597Z,59.10
2023-10-18T05:44:07.970Z,59.20
2023-10-18T05:46:39.847Z,59.20
2023-10-18T05:49:16.729Z,59.30
2023-10-18T05:51:54.089Z,59.30
2023-10-18T05:54:22.792Z,59.20
2023-10-18T05:56:54.545Z,59.30
2023-10-18T05:59:21.706Z,59.30
2023-10-18T06:01:49.619Z,59.40
2023-10-18T06:04:25.926Z,59.40
2023-10-18T06:06:59.932Z,59.40
2023-10-18T06:09:34.537Z,59.50
2023-10-18T06:12:02.217Z,59.60
2023-10-18T06:14:41.950Z,59.50
2023-10-18T06:17:20.633Z,59.50
2023-10-18T06:19:48.876Z,59.50
2023-10-18T06:22:30.809Z,59.50
2023-10-18T06:24:59.035Z,59.50
2023-10-18T06:27:25.877Z,59.50
2023-10-18T06:29:55.214Z,59.60
2023-10-18T06:32:26.545Z,59.60
2023-10-18T06:34:59.779Z,59.60
2023-10-18T06:37:45.206Z,59.70
2023-10-18T06:40:30.982Z,59.70
2023-10-18T06:42:59.115Z,59.80
2023-10-18T06:45:27.332Z,59.80
2023-10-18T06:47:58.100Z,59.80
2023-10-18T06:50:33.879Z,59.90
2023-10-18T06:53:01.347Z,60.00
2023-10-18T06:55:43.608Z,60.10
2023-10-18T06:58:36.809Z,60.10
2023-10-18T07:01:11.120Z,60.10
2023-10-18T07:03:39.077Z,60.20
2023-10-18T07:06:17.255Z,60.30
2023-10-18T07:08:46.822Z,60.50
2023-10-18T07:11:22.617Z,60.70
2023-10-18T07:13:55.389Z,60.70
2023-10-18T07:16:34.793Z,60.70
2023-10-18T07:19:22.704Z,60.80
2023-10-18T07:21:49.881Z,60.90
2023-10-18T07:24:18.837Z,60.90
2023-10-18T07:26:49.016Z,60.90
2023-10-18T07:29:16.473Z,61.00
2023-10-18T07:31:46.418Z,61.20
2023-10-18T07:34:19.198Z,61.30
2023-10-18T07:36:46.934Z,61.30
2023-10-18T07:39:14.409Z,61.30
2023-10-18T07:41:42.083Z,61.20
2023-10-18T07:44:09.195Z,61.10
2023-10-18T07:46:40.652Z,61.30
2023-10-18T07:49:16.984Z,61.40
2023-10-18T07:51:49.921Z,61.60
2023-10-18T07:54:17.829Z,61.80
2023-10-18T07:56:51.149Z,61.90
2023-10-18T07:59:32.090Z,62.10
2023-10-18T08:02:20.026Z,62.40
2023-10-18T08:04:48.523Z,62.40
2023-10-18T08:07:21.704Z,62.30
2023-10-18T08:09:59.328Z,62.80
2023-10-18T08:12:26.519Z,62.90
2023-10-18T08:14:55.602Z,63.00
2023-10-18T08:17:32.162Z,62.90
2023-10-18T08:20:19.224Z,62.90
2023-10-18T08:22:46.589Z,63.10
2023-10-18T08:25:30.800Z,63.10
2023-10-18T08:27:57.852Z,63.30
2023-10-18T08:30:54.130Z,63.60
2023-10-18T08:33:21.999Z,64.00
2023-10-18T08:35:55.506Z,63.50
2023-10-18T08:38:27.810Z,63.60
2023-10-18T08:41:12.745Z,63.40
2023-10-18T08:43:53.829Z,63.40
2023-10-18T08:46:25.638Z,63.60
2023-10-18T08:48:56.416Z,63.60
2023-10-18T08:51:27.789Z,63.70
2023-10-18T08:53:56.832Z,63.50
2023-10-18T08:56:30.577Z,63.60
2023-10-18T08:59:00.931Z,63.60
2023-10-18T09:01:28.569Z,63.60
2023-10-18T09:03:57.086Z,63.70
2023-10-18T09:06:24.496Z,63.40
2023-10-18T09:09:02.536Z,63.30
2023-10-18T09:11:29.481Z,63.30
2023-10-18T09:14:16.682Z,63.20
2023-10-18T09:16:44.561Z,63.10
2023-10-18T09:19:12.333Z,63.00
2023-10-18T09:21:48.755Z,62.80
2023-10-18T09:24:15.869Z,63.70
2023-10-18T09:26:44.734Z,62.60
2023-10-18T09:29:11.948Z,62.50
2023-10-18T09:31:54.130Z,62.30
2023-10-18T09:34:25.441Z,62.30
2023-10-18T09:36:56.330Z,62.30
2023-10-18T09:39:25.622Z,62.10
2023-10-18T09:41:53.314Z,62.10
2023-10-18T09:44:20.793Z,62.00
2023-10-18T09:46:51.119Z,61.70
2023-10-18T09:49:25.730Z,61.30
2023-10-18T09:51:54.652Z,62.20
2023-10-18T09:54:24.776Z,61.30
2023-10-18T09:56:57.332Z,60.90
2023-10-18T09:59:27.632Z,60.80
2023-10-18T10:01:58.890Z,60.60
2023-10-18T10:04:26.936Z,60.40
2023-10-18T10:06:57.112Z,60.50
2023-10-18T10:09:30.936Z,60.30
2023-10-18T10:11:58.063Z,60.20
2023-10-18T10:14:24.972Z,59.90
2023-10-18T10:16:58.293Z,59.80
2023-10-18T10:19:32.561Z,59.80
2023-10-18T10:22:06.167Z,59.80
2023-10-18T10:25:10.974Z,60.20
2023-10-18T10:27:54.524Z,59.70
2023-10-18T10:30:27.238Z,59.00
2023-10-18T10:32:59.819Z,59.00
2023-10-18T10:35:28.999Z,57.50
2023-10-18T10:38:07.376Z,57.60
2023-10-18T10:40:34.465Z,57.30
2023-10-18T10:43:05.310Z,57.50
2023-10-18T10:45:55.217Z,57.70
2023-10-18T10:48:28.608Z,57.30
2023-10-18T10:51:21.142Z,57.20
2023-10-18T10:53:50.556Z,57.00
2023-10-18T10:56:29.406Z,56.20
2023-10-18T10:59:08.555Z,56.50
2023-10-18T11:01:45.121Z,56.40
2023-10-18T11:04:29.302Z,56.40
2023-10-18T11:06:58.483Z,56.20
2023-10-18T11:09:35.331Z,56.30
2023-10-18T11:12:09.500Z,56.90
2023-10-18T11:14:39.139Z,55.90
2023-10-18T11:17:15.320Z,55.90
2023-10-18T11:19:42.934Z,55.70
2023-10-18T11:22:12.346Z,55.40
2023-10-18T11:24:41.052Z,54.60
2023-10-18T11:27:12.097Z,55.00
2023-10-18T11:29:39.846Z,54.70
2023-10-18T11:32:16.900Z,54.70
2023-10-18T11:34:45.063Z,54.10
2023-10-18T11:37:15.124Z,53.50
2023-10-18T11:39:42.058Z,52.80
2023-10-18T11:42:12.025Z,52.70
2023-10-18T11:44:40.378Z,52.20
2023-10-18T11:47:20.554Z,52.10
2023-10-18T11:49:54.164Z,52.30
2023-10-18T11:52:26.710Z,51.70
2023-10-18T11:55:03.918Z,52.00
2023-10-18T11:57:41.193Z,52.30
2023-10-18T12:00:26.449Z,52.20
2023-10-18T12:02:54.648Z,52.50
2023-10-18T12:05:30.447Z,52.00
2023-10-18T12:08:07.270Z,52.00
2023-10-18T12:10:37.052Z,51.60
2023-10-18T12:13:08.321Z,51.30
2023-10-18T12:15:36.519Z,50.90
2023-10-18T12:18:07.013Z,50.60
2023-10-18T12:20:36.871Z,50.30
2023-10-18T12:23:05.409Z,49.90
2023-10-18T12:25:33.754Z,49.80
2023-10-18T12:28:01.932Z,49.80
2023-10-18T12:30:32.671Z,49.70
2023-10-18T12:33:05.999Z,49.70
2023-10-18T12:35:34.353Z,49.00
2023-10-18T12:38:01.880Z,48.70
2023-10-18T12:40:28.802Z,48.40
2023-10-18T12:42:57.663Z,48.80
2023-10-18T12:45:24.598Z,48.50
2023-10-18T12:47:52.742Z,48.70
2023-10-18T12:50:20.708Z,48.90
2023-10-18T12:52:54.464Z,48.60
2023-10-18T12:55:34.130Z,48.30
2023-10-18T12:58:01.649Z,47.40
2023-10-18T13:00:35.809Z,47.60
2023-10-18T13:03:02.775Z,47.50
2023-10-18T13:05:41.823Z,47.10
2023-10-18T13:08:24.755Z,47.30
2023-10-18T13:11:21.146Z,47.20
2023-10-18T13:13:48.195Z,47.40
2023-10-18T13:16:16.513Z,47.60
2023-10-18T13:18:43.582Z,47.60
2023-10-18T13:21:13.330Z,47.40
2023-10-18T13:23:46.266Z,47.30
2023-10-18T13:26:17.716Z,47.40
2023-10-18T13:29:01.268Z,47.40
2023-10-18T13:31:34.051Z,47.50
2023-10-18T13:34:07.968Z,47.90
2023-10-18T13:36:35.213Z,47.80
2023-10-18T13:39:02.132Z,48.00
2023-10-18T13:41:29.129Z,47.80
2023-10-18T13:43:56.411Z,47.80
2023-10-18T13:46:24.715Z,48.00
2023-10-18T13:48:51.743Z,47.80
2023-10-18T13:51:19.494Z,47.90
2023-10-18T13:53:47.474Z,47.70
2023-10-18T13:56:14.968Z,47.90
2023-10-18T13:58:42.992Z,47.90
2023-10-18T14:01:19.184Z,47.70
2023-10-18T14:03:49.615Z,47.30
2023-10-18T14:06:16.592Z,47.50
2023-10-18T14:08:44.372Z,47.30
2023-10-18T14:11:14.329Z,46.80
2023-10-18T14:13:45.732Z,46.50
2023-10-18T14:16:19.246Z,46.20
2023-10-18T14:18:49.716Z,46.70
2023-10-18T14:21:16.747Z,47.00
2023-10-18T14:23:47.066Z,47.20
2023-10-18T14:26:14.295Z,47.30
2023-10-18T14:28:42.056Z,46.80
2023-10-18T14:31:16.227Z,47.20
2023-10-18T14:33:47.290Z,47.10
2023-10-18T14:36:26.870Z,46.80
2023-10-18T14:38:55.075Z,47.00
2023-10-18T14:41:31.806Z,47.00
2023-10-18T14:43:59.387Z,47.20
2023-10-18T14:46:27.954Z,47.00
2023-10-18T14:48:58.013Z,47.30
2023-10-18T14:51:26.241Z,47.10
2023-10-18T14:53:53.944Z,47.10
2023-10-18T14:56:21.462Z,47.20
2023-10-18T14:58:48.860Z,47.20
2023-10-18T15:01:16.712Z,46.80
2023-10-18T15:03:44.386Z,46.90
2023-10-18T15:06:11.395Z,47.20
2023-10-18T15:08:38.307Z,47.30
2023-10-18T15:11:15.919Z,47.50
2023-10-18T15:13:44.381Z,47.20
2023-10-18T15:16:11.497Z,47.00
2023-10-18T15:18:38.527Z,47.20
2023-10-18T15:21:06.352Z,47.10
2023-10-18T15:23:34.048Z,47.00
2023-10-18T15:26:05.172Z,46.90
2023-10-18T15:28:32.959Z,46.80
2023-10-18T15:31:07.537Z,46.60
2023-10-18T15:33:34.427Z,46.80
2023-10-18T15:36:01.300Z,46.90
2023-10-18T15:38:28.242Z,47.20
2023-10-18T15:40:55.070Z,47.20
2023-10-18T15:43:22.160Z,47.00
2023-10-18T15:45:50.166Z,47.00
2023-10-18T15:48:17.050Z,46.90
2023-10-18T15:50:43.849Z,46.90
2023-10-18T15:53:10.696Z,46.90
2023-10-18T15:55:37.582Z,47.00
2023-10-18T15:58:05.925Z,47.20
2023-10-18T16:00:33.075Z,47.30
2023-10-18T16:03:00.152Z,47.50
2023-10-18T16:05:27.463Z,47.80
2023-10-18T16:07:54.812Z,47.60
2023-10-18T16:10:24.568Z,47.60
2023-10-18T16:12:51.705Z,47.90
2023-10-18T16:15:25.447Z,48.10
2023-10-18T16:17:52.657Z,48.10
2023-10-18T16:20:19.831Z,48.20
2023-10-18T16:22:47.247Z,48.40
2023-10-18T16:25:16.885Z,48.30
2023-10-18T16:27:44.399Z,48.20
2023-10-18T16:30:14.276Z,48.50
2023-10-18T16:32:41.340Z,48.50
2023-10-18T16:35:08.890Z,48.60
2023-10-18T16:37:36.622Z,48.70
2023-10-18T16:40:04.905Z,48.90
2023-10-18T16:42:31.878Z,49.20
2023-10-18T16:45:00.175Z,49.40
2023-10-18T16:47:27.195Z,49.30
2023-10-18T16:50:06.546Z,49.50
2023-10-18T16:52:42.671Z,49.60
2023-10-18T16:55:10.276Z,49.70
2023-10-18T16:57:37.239Z,49.80
2023-10-18T17:00:13.829Z,49.80
2023-10-18T17:02:41.655Z,49.90
2023-10-18T17:05:13.849Z,50.10
2023-10-18T17:07:45.048Z,50.40
2023-10-18T17:10:14.082Z,50.80
2023-10-18T17:12:41.087Z,51.10
2023-10-18T17:15:11.545Z,51.20
2023-10-18T17:17:38.841Z,51.40
2023-10-18T17:20:08.111Z,51.50
2023-10-18T17:22:35.036Z,51.90
2023-10-18T17:25:02.158Z,51.90
2023-10-18T17:27:29.039Z,52.00
2023-10-18T17:29:55.896Z,51.90
2023-10-18T17:32:23.099Z,51.90
2023-10-18T17:34:49.990Z,52.10
2023-10-18T17:37:16.847Z,52.30
2023-10-18T17:39:43.654Z,52.60
2023-10-18T17:42:10.798Z,52.60
2023-10-18T17:44:38.776Z,52.70
2023-10-18T17:47:06.156Z,52.90
2023-10-18T17:49:33.136Z,53.00
2023-10-18T17:52:01.286Z,53.10
2023-10-18T17:54:28.149Z,53.30
2023-10-18T17:56:55.113Z,53.30
2023-10-18T17:59:22.944Z,53.40
2023-10-18T18:01:53.612Z,53.50
2023-10-18T18:04:20.777Z,53.60
2023-10-18T18:06:48.240Z,53.60
2023-10-18T18:09:20.172Z,53.80
2023-10-18T18:11:48.557Z,53.90
2023-10-18T18:14:15.490Z,54.00
2023-10-18T18:16:46.477Z,54.20
2023-10-18T18:19:13.817Z,54.30
2023-10-18T18:21:40.854Z,54.30
2023-10-18T18:24:10.221Z,54.30
2023-10-18T18:26:50.152Z,54.20
2023-10-18T18:29:17.995Z,54.30
2023-10-18T18:31:44.930Z,54.50
2023-10-18T18:34:11.770Z,54.50
2023-10-18T18:36:38.826Z,54.60
2023-10-18T18:39:08.074Z,54.60
2023-10-18T18:41:35.041Z,54.70
2023-10-18T18:44:01.934Z,55.30
2023-10-18T18:46:38.474Z,54.90
2023-10-18T18:49:07.912Z,54.90
2023-10-18T18:51:35.965Z,55.00
2023-10-18T18:54:02.849Z,54.90
2023-10-18T18:56:29.852Z,55.10
2023-10-18T18:58:56.760Z,55.10
2023-10-18T19:01:23.540Z,55.00
2023-10-18T19:03:50.813Z,55.20
2023-10-18T19:06:17.753Z,55.30
2023-10-18T19:08:44.776Z,55.40
2023-10-18T19:11:25.135Z,55.50
2023-10-18T19:13:52.617Z,55.60
2023-10-18T19:16:20.198Z,55.60
2023-10-18T19:18:47.117Z,55.50
2023-10-18T19:21:15.600Z,56.30
2023-10-18T19:23:42.560Z,55.60
2023-10-18T19:26:13.092Z,55.70
2023-10-18T19:28:40.145Z,55.80
2023-10-18T19:31:07.524Z,55.90
2023-10-18T19:33:34.462Z,56.00
2023-10-18T19:36:04.306Z,56.10
2023-10-18T19:38:31.415Z,56.10
2023-10-18T19:41:05.103Z,56.10
2023-10-18T19:43:31.928Z,56.10
2023-10-18T19:45:59.405Z,56.10
2023-10-18T19:48:28.119Z,56.30
2023-10-18T19:50:55.214Z,56.20
2023-10-18T19:53:22.964Z,56.20
2023-10-18T19:55:50.952Z,56.40
2023-10-18T19:58:18.325Z,56.40
2023-10-18T20:00:46.580Z,56.40
2023-10-18T20:03:14.832Z,56.50
2023-10-18T20:05:42.429Z,56.60
2023-10-18T20:08:10.182Z,56.60
2023-10-18T20:10:39.334Z,56.70
2023-10-18T20:13:06.611Z,56.70
2023-10-18T20:15:33.980Z,56.80
2023-10-18T20:18:01.105Z,56.80
2023-10-18T20:20:28.141Z,56.90
2023-10-18T20:22:57.879Z,57.00
2023-10-18T20:25:24.976Z,57.10
2023-10-18T20:27:51.789Z,57.10
2023-10-18T20:30:18.724Z,57.70
2023-10-18T20:32:46.530Z,57.20
2023-10-18T20:35:16.010Z,57.30
2023-10-18T20:37:42.890Z,57.30
2023-10-18T20:40:10.351Z,57.40
2023-10-18T20:42:37.911Z,57.40
2023-10-18T20:45:12.922Z,57.30
2023-10-18T20:47:42.350Z,57.30
2023-10-18T20:50:19.088Z,57.30
2023-10-18T20:52:46.980Z,57.40
2023-10-18T20:55:14.204Z,57.40
2023-10-18T20:57:42.428Z,57.50
2023-10-18T21:00:24.296Z,57.30
2023-10-18T21:02:52.169Z,57.40
2023-10-18T21:05:35.342Z,57.50
2023-10-18T21:08:02.592Z,57.50
2023-10-18T21:10:30.862Z,57.50
2023-10-18T21:12:58.927Z,57.50
2023-10-18T21:15:29.588Z,57.70
2023-10-18T21:17:57.370Z,57.70
2023-10-18T21:20:24.306Z,57.80
2023-10-18T21:22:58.426Z,57.70
2023-10-18T21:25:25.660Z,57.70
2023-10-18T21:27:53.642Z,57.80
2023-10-18T21:30:20.694Z,57.80
2023-10-18T21:32:49.080Z,57.80
2023-10-18T21:35:16.300Z,57.80
2023-10-18T21:37:44.594Z,57.90
2023-10-18T21:40:12.964Z,57.90
2023-10-18T21:42:40.298Z,58.10
2023-10-18T21:45:09.165Z,58.00
2023-10-18T21:47:36.355Z,58.00
2023-10-18T21:50:03.450Z,58.10
2023-10-18T21:52:30.721Z,58.00
2023-10-18T21:54:58.533Z,58.10
2023-10-18T21:57:26.679Z,58.10
2023-10-18T21:59:58.181Z,58.10
2023-10-18T22:02:30.563Z,58.20
2023-10-18T22:05:05.054Z,58.20
2023-10-18T22:07:34.338Z,58.20
2023-10-18T22:10:01.564Z,58.10
2023-10-18T22:12:28.494Z,58.30
2023-10-18T22:14:55.883Z,58.20
2023-10-18T22:17:30.366Z,58.20
2023-10-18T22:19:59.583Z,58.30
2023-10-18T22:22:30.497Z,58.20
2023-10-18T22:24:57.777Z,59.00
2023-10-18T22:27:26.348Z,59.00
2023-10-18T22:29:55.816Z,59.10
2023-10-18T22:32:29.947Z,59.00
2023-10-18T22:35:00.837Z,59.00
2023-10-18T22:37:27.642Z,59.10
2023-10-18T22:40:05.413Z,59.20
2023-10-18T22:42:40.397Z,59.10
2023-10-18T22:45:10.245Z,59.20
2023-10-18T22:47:53.017Z,59.20
2023-10-18T22:50:40.759Z,59.30
2023-10-18T22:53:27.810Z,59.40
2023-10-18T22:55:58.210Z,59.30
2023-10-18T22:58:27.844Z,59.40
2023-10-18T23:00:54.996Z,59.50
2023-10-18T23:03:25.887Z,59.50
2023-10-18T23:06:00.183Z,59.50
2023-10-18T23:08:37.363Z,59.60
2023-10-18T23:11:20.066Z,59.60
2023-10-18T23:13:49.723Z,59.70
2023-10-18T23:16:37.743Z,59.60
2023-10-18T23:19:11.405Z,59.60
2023-10-18T23:21:46.326Z,59.70
2023-10-18T23:24:18.918Z,59.60
2023-10-18T23:27:04.157Z,59.60
2023-10-18T23:29:41.203Z,59.60
2023-10-18T23:32:13.273Z,59.80
2023-10-18T23:34:56.040Z,59.80
2023-10-18T23:37:47.232Z,59.90
2023-10-18T23:40:26.856Z,59.90
2023-10-18T23:43:15.213Z,59.80
2023-10-18T23:45:42.399Z,59.80
2023-10-18T23:48:29.033Z,59.80
2023-10-18T23:51:15.519Z,59.80
2023-10-18T23:53:45.366Z,59.80
2023-10-18T23:56:15.517Z,59.80
2023-10-18T23:58:43.024Z,59.80
